Time;durP1;ratioP1;P1;durP2;ratioP2;P2;SDS_P1;SDS_P2;PMS_P1;PMS_P2;Temp;Humidity;BMP_temperature;BMP_pressure;BME280_temperature;BME280_humidity;BME280_pressure;Samples;Min_cycle;Max_cycle;Signal;HPM_P1;HPM_P2
2023/01/31 00:00:54;;;;;;;15.68;3.40;;;;;;;2.06;98.41;102369.00;5002746;28;20044;-78
2023/01/31 00:03:19;;;;;;;13.73;2.60;;;;;;;2.06;97.92;102374.09;5003640;28;20270;-78
2023/01/31 00:05:44;;;;;;;14.50;4.18;;;;;;;1.96;98.19;102377.75;5004103;28;20022;-78
2023/01/31 00:08:11;;;;;;;16.75;3.40;;;;;;;1.99;98.47;102379.38;5002528;28;20029;-77
2023/01/31 00:10:36;;;;;;;18.33;3.92;;;;;;;2.02;98.26;102377.63;5007424;28;20562;-78
2023/01/31 00:13:02;;;;;;;16.38;3.17;;;;;;;2.00;98.32;102383.63;4994173;28;20027;-78
2023/01/31 00:15:27;;;;;;;16.20;3.50;;;;;;;1.99;98.04;102377.69;4998058;28;20502;-78
2023/01/31 00:17:54;;;;;;;15.68;3.60;;;;;;;1.98;98.10;102380.28;5002185;28;20042;-78
2023/01/31 00:20:19;;;;;;;15.80;3.42;;;;;;;1.96;98.18;102379.47;5001548;28;20034;-78
2023/01/31 00:22:45;;;;;;;15.15;3.10;;;;;;;1.98;97.78;102388.78;4994524;28;20038;-78
2023/01/31 00:25:10;;;;;;;15.63;3.28;;;;;;;1.92;98.52;102388.91;4990806;28;20014;-78
2023/01/31 00:27:35;;;;;;;14.18;3.72;;;;;;;1.94;97.98;102399.94;5002591;28;20552;-77
2023/01/31 00:30:00;;;;;;;13.23;3.28;;;;;;;1.93;98.16;102400.84;4985711;28;20038;-77
2023/01/31 00:32:26;;;;;;;17.75;3.92;;;;;;;1.93;97.90;102402.53;5006832;28;20069;-77
2023/01/31 00:34:53;;;;;;;15.27;3.35;;;;;;;1.86;98.61;102378.81;4994587;28;20105;-78
2023/01/31 00:37:19;;;;;;;17.35;3.35;;;;;;;1.85;98.45;102379.69;4997212;28;20042;-78
2023/01/31 00:39:44;;;;;;;17.10;3.95;;;;;;;1.82;98.50;102374.63;4998222;28;20040;-77
2023/01/31 00:42:09;;;;;;;20.20;4.90;;;;;;;1.73;98.35;102369.72;5005331;28;20022;-77
2023/01/31 00:44:35;;;;;;;10.75;2.80;;;;;;;1.75;98.48;102367.94;4999318;28;20417;-78
2023/01/31 00:47:00;;;;;;;14.90;3.72;;;;;;;1.75;98.10;102373.06;5006594;28;20029;-77
2023/01/31 00:49:26;;;;;;;15.32;3.80;;;;;;;1.70;98.33;102379.97;4979360;28;20466;-78
2023/01/31 00:51:51;;;;;;;15.55;4.25;;;;;;;1.73;98.53;102379.94;4997524;28;20062;-77
2023/01/31 00:54:16;;;;;;;15.07;3.70;;;;;;;1.69;98.59;102368.06;5001045;28;20511;-78
2023/01/31 00:56:43;;;;;;;18.00;3.75;;;;;;;1.66;98.20;102357.88;5004627;28;20427;-78
2023/01/31 00:59:09;;;;;;;18.20;4.18;;;;;;;1.62;98.85;102346.91;5007742;28;20030;-78
2023/01/31 01:01:34;;;;;;;18.95;4.32;;;;;;;1.66;98.50;102353.63;5007393;28;20026;-79
2023/01/31 01:04:00;;;;;;;15.43;3.35;;;;;;;1.63;98.80;102347.75;4990607;28;20387;-78
2023/01/31 01:06:27;;;;;;;14.98;3.40;;;;;;;1.60;98.57;102344.34;5009322;28;20072;-77
2023/01/31 01:08:53;;;;;;;13.18;3.92;;;;;;;1.54;98.99;102341.06;4991800;28;20026;-77
2023/01/31 01:11:24;;;;;;;15.98;2.90;;;;;;;1.48;98.93;102339.47;5003258;28;20073;-78
2023/01/31 01:13:50;;;;;;;14.32;4.00;;;;;;;1.50;98.82;102337.75;5009236;28;20064;-77
2023/01/31 01:16:23;;;;;;;18.77;3.03;;;;;;;1.47;99.20;102337.81;5005716;28;20038;-78
2023/01/31 01:18:49;;;;;;;10.93;2.33;;;;;;;1.43;98.96;102333.59;5005212;28;20029;-77
2023/01/31 01:21:23;;;;;;;15.68;2.63;;;;;;;1.37;99.18;102326.06;5002895;28;20351;-77
2023/01/31 01:23:49;;;;;;;15.38;2.90;;;;;;;1.39;99.46;102337.13;5003294;28;20030;-78
2023/01/31 01:26:34;;;;;;;14.05;2.30;;;;;;;1.40;99.25;102336.25;5001461;28;20026;-78
2023/01/31 01:29:01;;;;;;;10.18;2.15;;;;;;;1.39;99.37;102329.44;5003721;28;20065;-77
2023/01/31 01:31:30;;;;;;;12.90;2.75;;;;;;;1.30;99.42;102334.72;4999486;28;20026;-78
2023/01/31 01:34:02;;;;;;;11.20;2.55;;;;;;;1.33;99.91;102337.25;5013929;28;20044;-78
2023/01/31 01:36:28;;;;;;;14.25;2.40;;;;;;;1.33;99.47;102330.41;5009853;28;20050;-79
2023/01/31 01:38:54;;;;;;;16.83;3.30;;;;;;;1.35;99.74;102327.81;5000315;28;20025;-78
2023/01/31 01:41:20;;;;;;;11.90;2.95;;;;;;;1.35;100.00;102322.69;5006904;28;20034;-78
2023/01/31 01:43:55;;;;;;;16.98;3.10;;;;;;;1.39;100.00;102319.22;4999688;28;20029;-78
2023/01/31 01:46:32;;;;;;;10.35;2.22;;;;;;;1.41;100.00;102322.59;5003335;28;20053;-78
2023/01/31 01:49:02;;;;;;;20.25;3.15;;;;;;;1.36;100.00;102314.16;5012383;28;20014;-78
2023/01/31 01:51:31;;;;;;;12.27;2.60;;;;;;;1.42;100.00;102331.94;5004280;28;20030;-79
2023/01/31 01:54:01;;;;;;;11.23;2.38;;;;;;;1.40;100.00;102320.91;5001031;28;20025;-78
2023/01/31 01:56:35;;;;;;;12.00;2.35;;;;;;;1.43;100.00;102335.31;5004785;28;20091;-78
2023/01/31 01:59:08;;;;;;;10.15;2.90;;;;;;;1.42;100.00;102324.25;5006144;28;20034;-78
2023/01/31 02:01:36;;;;;;;15.38;2.67;;;;;;;1.45;100.00;102329.31;5001961;28;20109;-78
2023/01/31 02:04:04;;;;;;;17.17;2.83;;;;;;;1.43;100.00;102323.38;5004858;28;20066;-77
2023/01/31 02:06:30;;;;;;;14.88;2.75;;;;;;;1.47;100.00;102332.69;5013709;28;20388;-78
2023/01/31 02:08:55;;;;;;;12.50;2.85;;;;;;;1.47;100.00;102332.69;5003062;28;20381;-77
2023/01/31 02:11:28;;;;;;;17.48;2.70;;;;;;;1.48;100.00;102329.25;4982209;28;20026;-78
2023/01/31 02:13:59;;;;;;;15.07;2.72;;;;;;;1.50;100.00;102327.53;5009519;28;20140;-78
2023/01/31 02:16:25;;;;;;;13.80;2.67;;;;;;;1.50;100.00;102330.09;5000959;28;20029;-78
2023/01/31 02:18:51;;;;;;;17.05;2.70;;;;;;;1.51;100.00;102334.31;4998236;28;20081;-78
2023/01/31 02:21:25;;;;;;;18.73;3.63;;;;;;;1.55;100.00;102335.97;5005666;28;20458;-77
2023/01/31 02:24:29;;;;;;;16.63;2.72;;;;;;;1.58;100.00;102335.88;4985759;28;20472;-78
2023/01/31 02:27:22;;;;;;;11.15;2.30;;;;;;;1.55;100.00;102328.28;5006970;28;20050;-78
2023/01/31 02:30:25;;;;;;;11.35;2.90;;;;;;;1.64;100.00;102344.31;4983514;28;20041;-78
2023/01/31 02:33:23;;;;;;;15.40;2.80;;;;;;;1.64;100.00;102349.41;4987789;28;20092;-78
2023/01/31 02:36:29;;;;;;;15.57;2.90;;;;;;;1.63;100.00;102332.41;4978528;28;20073;-78
2023/01/31 02:39:28;;;;;;;13.23;2.58;;;;;;;1.69;100.00;102342.50;4928617;29;20295;-78
2023/01/31 02:42:13;;;;;;;17.55;3.40;;;;;;;1.72;100.00;102352.66;4933794;29;20039;-77
2023/01/31 02:45:06;;;;;;;17.88;3.97;;;;;;;1.74;100.00;102335.56;4990034;28;20046;-77
2023/01/31 02:48:01;;;;;;;14.98;3.58;;;;;;;1.77;100.00;102330.38;4981216;28;20026;-78
2023/01/31 02:50:30;;;;;;;17.90;3.58;;;;;;;1.78;100.00;102322.69;5006816;28;20034;-78
2023/01/31 02:53:01;;;;;;;11.95;3.30;;;;;;;1.79;100.00;102318.41;4990292;28;20501;-78
2023/01/31 02:58:25;;;;;;;16.15;3.75;;;;;;;1.78;100.00;102307.34;4998401;28;20101;-78
2023/01/31 03:00:56;;;;;;;19.00;3.90;;;;;;;1.84;100.00;102306.38;5000181;28;20484;-77
2023/01/31 03:03:25;;;;;;;12.43;3.97;;;;;;;1.86;100.00;102295.22;5003152;28;20036;-78
2023/01/31 03:06:32;;;;;;;18.60;4.68;;;;;;;1.94;100.00;102304.44;4984015;28;20141;-79
2023/01/31 03:09:06;;;;;;;12.52;4.20;;;;;;;1.95;100.00;102299.31;5005296;28;20040;-79
2023/01/31 03:11:55;;;;;;;19.05;5.20;;;;;;;1.94;100.00;102292.50;5002274;28;20109;-78
2023/01/31 03:14:30;;;;;;;15.27;4.82;;;;;;;1.96;100.00;102290.75;5005097;28;20049;-79
2023/01/31 03:20:06;;;;;;;19.92;5.57;;;;;;;2.01;100.00;102304.28;4995187;28;20528;-78
2023/01/31 03:22:37;;;;;;;23.33;6.70;;;;;;;2.04;100.00;102298.25;4999832;28;20555;-77
2023/01/31 03:25:06;;;;;;;20.83;6.10;;;;;;;2.08;100.00;102308.41;4980818;28;20049;-77
2023/01/31 03:27:32;;;;;;;19.80;5.68;;;;;;;2.02;100.00;102280.38;4989719;28;20030;-77
2023/01/31 03:30:14;;;;;;;21.83;5.50;;;;;;;2.13;100.00;102300.63;5002564;28;20072;-78
2023/01/31 03:32:46;;;;;;;20.08;5.40;;;;;;;2.16;100.00;102297.13;4993933;28;20362;-77
2023/01/31 03:35:11;;;;;;;15.40;5.35;;;;;;;2.20;100.00;102289.34;4990967;28;20381;-77
2023/01/31 03:37:45;;;;;;;18.95;6.68;;;;;;;2.20;100.00;102288.53;4981806;28;20022;-79
2023/01/31 03:40:24;;;;;;;19.98;6.55;;;;;;;2.19;100.00;102282.56;5009875;28;20412;-79
2023/01/31 03:42:56;;;;;;;;;;;;;;;2.28;100.00;102284.03;4992784;28;20029;-78
2023/01/31 03:45:34;;;;;;;23.27;6.78;;;;;;;2.22;100.00;102273.94;4992118;28;19917;-79
2023/01/31 03:48:05;;;;;;;20.70;7.35;;;;;;;2.26;100.00;102278.97;5005485;28;20029;-79
2023/01/31 03:50:37;;;;;;;16.60;7.10;;;;;;;2.30;100.00;102269.50;4992198;28;20049;-78
2023/01/31 03:53:24;;;;;;;18.60;7.22;;;;;;;2.32;100.00;102272.88;4982309;28;20370;-78
2023/01/31 03:56:28;;;;;;;24.10;7.22;;;;;;;2.34;100.00;102278.78;4994633;28;20509;-78
2023/01/31 03:59:02;;;;;;;22.95;7.05;;;;;;;2.32;100.00;102266.03;4938424;29;20118;-78
2023/01/31 04:01:33;;;;;;;25.65;7.82;;;;;;;2.35;100.00;102267.66;4925881;29;20032;-78
2023/01/31 04:04:08;;;;;;;24.38;8.18;;;;;;;2.32;100.00;102262.63;4974682;28;20045;-78
2023/01/31 04:06:33;;;;;;;23.05;7.90;;;;;;;2.33;100.00;102254.91;4979642;28;20065;-79
2023/01/31 04:08:59;;;;;;;14.80;7.95;;;;;;;2.36;100.00;102254.00;4994981;28;20030;-77
2023/01/31 04:11:26;;;;;;;21.42;7.90;;;;;;;2.33;100.00;102248.94;5002286;28;20071;-79
2023/01/31 04:13:52;;;;;;;20.52;7.93;;;;;;;2.33;100.00;102248.94;5001324;28;20026;-78
2023/01/31 04:16:17;;;;;;;26.30;11.18;;;;;;;2.35;100.00;102252.28;5006109;28;20068;-78
2023/01/31 04:18:43;;;;;;;20.45;7.72;;;;;;;2.38;100.00;102244.56;4997361;28;20022;-78
2023/01/31 04:21:08;;;;;;;18.98;7.68;;;;;;;2.34;100.00;102255.75;4992144;28;20034;-78
2023/01/31 04:23:34;;;;;;;23.00;6.90;;;;;;;2.35;100.00;102249.72;5005782;28;20036;-78
2023/01/31 04:25:59;;;;;;;25.48;8.77;;;;;;;2.40;100.00;102265.81;5004321;28;20552;-79
2023/01/31 04:28:25;;;;;;;22.55;8.38;;;;;;;2.41;100.00;102257.28;4989232;28;20057;-78
2023/01/31 04:30:55;;;;;;;21.40;7.22;;;;;;;2.40;100.00;102255.59;4997807;28;20364;-79
2023/01/31 04:33:21;;;;;;;19.52;7.55;;;;;;;2.42;100.00;102251.28;4995870;28;20041;-78
2023/01/31 04:35:46;;;;;;;25.55;7.30;;;;;;;2.38;100.00;102245.38;4992963;28;20033;-79
2023/01/31 04:38:12;;;;;;;25.95;10.60;;;;;;;2.38;100.00;102250.50;4999966;28;20041;-79
2023/01/31 04:40:37;;;;;;;23.00;7.65;;;;;;;2.39;100.00;102243.66;5004976;28;20030;-78
2023/01/31 04:43:03;;;;;;;21.45;8.07;;;;;;;2.42;100.00;102238.50;4998912;28;20061;-78
2023/01/31 04:45:28;;;;;;;25.90;8.38;;;;;;;2.38;100.00;102231.75;4996894;28;20493;-78
2023/01/31 04:47:53;;;;;;;28.10;7.97;;;;;;;2.38;100.00;102237.72;5003097;28;20049;-79
2023/01/31 04:50:19;;;;;;;19.98;7.28;;;;;;;2.37;100.00;102230.91;4993829;28;20041;-79
2023/01/31 04:52:48;;;;;;;26.40;8.88;;;;;;;2.35;100.00;102234.38;4994406;28;20037;-78
2023/01/31 04:55:13;;;;;;;21.35;7.63;;;;;;;2.36;100.00;102238.63;4989292;28;20500;-79
2023/01/31 04:57:39;;;;;;;22.90;10.02;;;;;;;2.25;100.00;102227.81;4997438;28;20035;-79
2023/01/31 05:00:05;;;;;;;21.70;8.80;;;;;;;2.33;100.00;102228.47;4985100;28;20068;-79
2023/01/31 05:02:30;;;;;;;18.00;7.55;;;;;;;2.30;100.00;102224.28;4993374;28;20049;-79
2023/01/31 05:04:56;;;;;;;24.80;8.23;;;;;;;2.32;100.00;102216.53;4991110;28;20022;-78
2023/01/31 05:07:21;;;;;;;28.00;11.02;;;;;;;2.27;100.00;102205.56;4993710;28;20030;-79
2023/01/31 05:09:47;;;;;;;22.70;9.07;;;;;;;2.32;100.00;102207.13;4990380;28;20034;-78
2023/01/31 05:12:12;;;;;;;17.45;7.00;;;;;;;2.33;100.00;102203.69;4992589;28;20120;-78
2023/01/31 05:14:37;;;;;;;26.48;9.70;;;;;;;2.33;100.00;102202.84;4989932;28;20030;-79
2023/01/31 05:17:03;;;;;;;24.20;8.70;;;;;;;2.34;100.00;102191.72;4992737;28;20111;-79
2023/01/31 05:19:28;;;;;;;22.55;7.70;;;;;;;2.40;100.00;102197.53;4991498;28;20557;-79
2023/01/31 05:21:53;;;;;;;28.63;9.50;;;;;;;2.43;100.00;102201.75;4988548;28;20030;-79
2023/01/31 05:24:22;;;;;;;25.10;7.38;;;;;;;2.44;100.00;102195.75;4986071;28;20054;-79
2023/01/31 05:26:49;;;;;;;25.58;8.15;;;;;;;2.45;100.00;102197.41;4992926;28;20366;-79
2023/01/31 05:29:15;;;;;;;28.48;9.57;;;;;;;2.51;100.00;102211.78;4995678;28;20069;-79
2023/01/31 05:31:40;;;;;;;30.90;13.18;;;;;;;2.47;100.00;102205.94;4988910;28;20038;-79
2023/01/31 05:34:06;;;;;;;27.00;10.52;;;;;;;2.46;100.00;102199.09;4991807;28;20137;-79
2023/01/31 05:36:31;;;;;;;26.27;10.25;;;;;;;2.51;100.00;102192.13;4993376;28;20496;-79
2023/01/31 05:38:56;;;;;;;27.77;9.43;;;;;;;2.49;100.00;102176.00;4991646;28;20041;-79
2023/01/31 05:41:22;;;;;;;20.77;8.95;;;;;;;2.58;100.00;102201.38;4992651;28;20136;-79
2023/01/31 05:43:47;;;;;;;23.73;8.02;;;;;;;2.59;100.00;102205.59;4994488;28;20112;-79
2023/01/31 05:46:12;;;;;;;24.10;9.65;;;;;;;2.55;100.00;102191.19;4992265;28;20060;-79
2023/01/31 05:48:38;;;;;;;26.17;11.60;;;;;;;2.58;100.00;102178.31;4991284;28;20113;-78
2023/01/31 05:51:03;;;;;;;22.10;8.20;;;;;;;2.59;100.00;102180.00;4995769;28;20034;-78
2023/01/31 05:53:29;;;;;;;25.40;9.18;;;;;;;2.64;100.00;102188.41;4992283;28;20026;-78
2023/01/31 05:55:54;;;;;;;27.02;11.98;;;;;;;2.60;100.00;102173.97;5005048;28;20024;-78
2023/01/31 05:58:19;;;;;;;28.25;9.20;;;;;;;2.59;100.00;102179.16;4996888;28;20551;-79
2023/01/31 06:00:45;;;;;;;23.40;9.45;;;;;;;2.64;100.00;102182.44;4986684;28;20061;-78
2023/01/31 06:03:10;;;;;;;26.58;8.95;;;;;;;2.63;100.00;102191.81;4994144;28;20053;-78
2023/01/31 06:05:35;;;;;;;24.40;8.73;;;;;;;2.68;100.00;102184.00;4998373;28;20441;-78
2023/01/31 06:08:01;;;;;;;21.83;9.52;;;;;;;2.72;100.00;102192.47;5000167;28;20014;-78
2023/01/31 06:10:26;;;;;;;23.65;10.02;;;;;;;2.71;100.00;102185.66;5004355;28;20351;-79
2023/01/31 06:12:52;;;;;;;24.17;9.65;;;;;;;2.69;100.00;102180.56;4997455;28;20030;-79
2023/01/31 06:15:17;;;;;;;22.90;9.50;;;;;;;2.73;100.00;102181.34;4984614;28;20022;-79
2023/01/31 06:17:42;;;;;;;22.42;9.00;;;;;;;2.75;100.00;102179.56;4998249;28;20117;-77
2023/01/31 06:20:08;;;;;;;21.30;8.77;;;;;;;2.74;100.00;102183.84;4998904;28;20588;-77
2023/01/31 06:22:34;;;;;;;27.75;11.40;;;;;;;2.70;100.00;102176.31;5002197;28;20033;-79
2023/01/31 06:24:59;;;;;;;22.92;8.80;;;;;;;2.72;100.00;102180.50;4996857;28;20382;-79
2023/01/31 06:27:24;;;;;;;24.05;9.57;;;;;;;2.69;100.00;102169.47;5004936;28;20038;-78
2023/01/31 06:29:50;;;;;;;30.05;14.70;;;;;;;2.69;100.00;102172.03;4991308;28;20415;-79
2023/01/31 06:32:15;;;;;;;26.73;10.23;;;;;;;2.74;100.00;102162.50;5003303;28;20064;-78
2023/01/31 06:34:40;;;;;;;27.50;10.02;;;;;;;2.73;100.00;102150.59;4983422;28;20041;-79
2023/01/31 06:37:08;;;;;;;26.55;10.23;;;;;;;2.73;100.00;102145.47;5000526;28;20040;-78
2023/01/31 06:39:33;;;;;;;29.02;9.52;;;;;;;2.75;100.00;102136.00;4985931;28;20026;-78
2023/01/31 06:41:59;;;;;;;25.45;10.15;;;;;;;2.74;100.00;102142.84;5001099;28;20343;-78
2023/01/31 06:44:24;;;;;;;26.52;12.20;;;;;;;2.69;100.00;102143.88;4994158;28;20490;-77
2023/01/31 06:46:49;;;;;;;29.88;10.23;;;;;;;2.73;100.00;102145.47;4993636;28;20417;-77
2023/01/31 06:49:15;;;;;;;26.02;10.68;;;;;;;2.71;100.00;102147.25;4991444;28;20042;-78
2023/01/31 06:51:40;;;;;;;23.27;10.07;;;;;;;2.71;100.00;102147.25;4994432;28;20062;-77
2023/01/31 06:54:05;;;;;;;28.50;10.15;;;;;;;2.69;100.00;102138.75;4994896;28;20026;-77
2023/01/31 06:56:31;;;;;;;24.15;8.98;;;;;;;2.70;100.00;102140.44;4992509;28;20026;-78
2023/01/31 06:58:56;;;;;;;23.10;8.50;;;;;;;2.73;100.00;102140.34;4995651;28;20030;-79
2023/01/31 07:01:23;;;;;;;28.08;10.38;;;;;;;2.71;100.00;102126.75;4992207;28;20032;-77
2023/01/31 07:03:48;;;;;;;20.73;8.98;;;;;;;2.75;100.00;102138.56;4992975;28;20045;-79
2023/01/31 07:06:14;;;;;;;25.58;12.80;;;;;;;2.70;100.00;102130.19;4990140;28;20046;-79
2023/01/31 07:08:39;;;;;;;23.55;9.05;;;;;;;2.75;100.00;102138.56;4998952;28;20105;-78
2023/01/31 07:11:05;;;;;;;25.13;9.25;;;;;;;2.67;100.00;102110.63;4997656;28;20026;-78
2023/01/31 07:13:31;;;;;;;26.35;12.77;;;;;;;2.64;100.00;102108.16;5008202;28;20034;-78
2023/01/31 07:15:56;;;;;;;24.83;9.35;;;;;;;2.69;100.00;102118.25;5007129;28;20104;-78
2023/01/31 07:18:22;;;;;;;22.77;9.20;;;;;;;2.66;100.00;102108.94;4983167;28;20053;-78
2023/01/31 07:20:48;;;;;;;26.00;9.75;;;;;;;2.70;100.00;102114.81;5003874;28;20034;-79
2023/01/31 07:23:13;;;;;;;20.75;9.98;;;;;;;2.70;100.00;102119.94;4998214;28;20063;-78
2023/01/31 07:25:39;;;;;;;20.27;7.82;;;;;;;2.67;100.00;102115.75;4993496;28;20116;-78
2023/01/31 07:28:04;;;;;;;22.85;8.32;;;;;;;2.72;100.00;102121.56;4997146;28;20058;-78
2023/01/31 07:30:30;;;;;;;25.05;10.52;;;;;;;2.70;100.00;102119.94;4994015;28;20032;-78
2023/01/31 07:32:55;;;;;;;25.77;9.95;;;;;;;2.69;100.00;102118.25;4992553;28;20030;-78
2023/01/31 07:35:21;;;;;;;22.38;8.60;;;;;;;2.69;100.00;102113.13;4994184;28;20109;-78
2023/01/31 07:37:47;;;;;;;23.98;7.93;;;;;;;2.69;100.00;102102.88;4996465;28;20038;-79
2023/01/31 07:40:14;;;;;;;23.73;8.05;;;;;;;2.70;100.00;102114.81;4983914;28;20286;-79
2023/01/31 07:42:40;;;;;;;20.00;8.70;;;;;;;2.70;100.00;102117.41;4994889;28;20034;-78
2023/01/31 07:45:07;;;;;;;23.35;8.43;;;;;;;2.71;100.00;102116.50;4992397;28;20029;-78
2023/01/31 07:47:32;;;;;;;20.85;8.52;;;;;;;2.71;100.00;102117.34;5001757;28;20038;-79
2023/01/31 07:49:58;;;;;;;23.40;8.27;;;;;;;2.66;100.00;102104.66;5007255;28;20476;-78
2023/01/31 07:52:23;;;;;;;23.77;8.18;;;;;;;2.67;100.00;102092.69;4999367;28;20034;-78
2023/01/31 07:54:48;;;;;;;21.85;7.78;;;;;;;2.64;100.00;102091.06;5003868;28;20018;-78
2023/01/31 07:57:16;;;;;;;24.35;9.82;;;;;;;2.65;100.00;102086.78;5001369;28;20049;-79
2023/01/31 07:59:43;;;;;;;20.83;7.18;;;;;;;2.71;100.00;102096.00;5003194;28;20037;-78
2023/01/31 08:04:55;;;;;;;21.30;8.38;;;;;;;2.70;100.00;102094.34;4999649;28;20088;-78
2023/01/31 08:07:20;;;;;;;22.63;10.98;;;;;;;2.69;100.00;102087.50;5003381;28;20492;-78
2023/01/31 08:09:48;;;;;;;19.13;8.13;;;;;;;2.74;100.00;102085.66;4995877;28;20533;-78
2023/01/31 08:12:14;;;;;;;24.90;9.05;;;;;;;2.74;100.00;102080.53;4996462;28;20042;-78
2023/01/31 08:14:39;;;;;;;25.70;7.93;;;;;;;2.75;100.00;102093.28;4998880;28;20072;-78
2023/01/31 08:17:07;;;;;;;20.23;10.20;;;;;;;2.73;100.00;102084.00;5001657;28;20096;-78
2023/01/31 08:19:33;;;;;;;24.67;10.23;;;;;;;2.75;100.00;102082.22;5005021;28;20030;-78
2023/01/31 08:21:59;;;;;;;23.80;7.97;;;;;;;2.79;100.00;102073.56;4979785;28;20413;-78
2023/01/31 08:24:24;;;;;;;23.25;10.13;;;;;;;2.77;100.00;102083.03;4995489;28;20492;-79
2023/01/31 08:26:49;;;;;;;22.73;7.75;;;;;;;2.81;100.00;102071.78;4994769;28;20033;-78
2023/01/31 08:29:15;;;;;;;21.73;8.40;;;;;;;2.84;100.00;102071.72;4999651;28;20033;-78
2023/01/31 08:31:41;;;;;;;19.98;8.48;;;;;;;2.84;100.00;102079.41;5001341;28;20029;-79
2023/01/31 08:34:07;;;;;;;23.02;8.00;;;;;;;2.85;100.00;102065.69;4992404;28;20034;-78
2023/01/31 08:36:32;;;;;;;21.83;7.65;;;;;;;2.89;100.00;102060.44;4991421;28;20505;-78
2023/01/31 08:38:58;;;;;;;19.63;9.10;;;;;;;2.90;100.00;102061.28;4997966;28;20052;-78
2023/01/31 08:41:25;;;;;;;18.85;8.52;;;;;;;2.93;100.00;102045.81;4992919;28;20121;-78
2023/01/31 08:43:51;;;;;;;20.35;8.45;;;;;;;2.90;100.00;102035.66;4995935;28;20250;-78
2023/01/31 08:46:17;;;;;;;23.15;10.25;;;;;;;2.95;100.00;102044.03;4994026;28;20034;-79
2023/01/31 08:48:43;;;;;;;19.77;7.80;;;;;;;2.99;100.00;102037.94;4995538;28;20423;-78
2023/01/31 08:51:12;;;;;;;22.13;10.60;;;;;;;3.00;100.00;102039.63;5001969;28;20386;-78
2023/01/31 08:53:39;;;;;;;20.38;7.32;;;;;;;3.05;100.00;102045.44;4993151;28;20085;-79
2023/01/31 08:56:06;;;;;;;21.15;10.13;;;;;;;3.04;100.00;102042.91;4994977;28;20056;-79
2023/01/31 08:58:34;;;;;;;20.05;7.47;;;;;;;3.07;100.00;102028.28;4988385;28;20029;-80
2023/01/31 09:01:08;;;;;;;19.30;9.50;;;;;;;3.13;100.00;102030.66;5003562;28;20030;-79
2023/01/31 09:03:33;;;;;;;20.42;7.47;;;;;;;3.15;100.00;102030.59;5000817;28;20061;-78
2023/01/31 09:06:05;;;;;;;18.13;7.35;;;;;;;3.18;100.00;102030.53;4998906;28;20405;-78
2023/01/31 09:08:31;;;;;;;18.17;6.78;;;;;;;3.24;100.00;102019.22;5003049;28;20038;-79
2023/01/31 09:10:59;;;;;;;22.00;7.55;;;;;;;3.25;100.00;102015.78;4995269;28;20669;-78
2023/01/31 09:13:24;;;;;;;21.67;7.83;;;;;;;3.25;100.00;102011.50;5001365;28;20025;-78
2023/01/31 09:16:01;;;;;;;21.15;8.32;;;;;;;3.33;100.00;102035.16;4982850;28;20026;-79
2023/01/31 09:18:27;;;;;;;22.15;8.57;;;;;;;3.36;100.00;102041.91;4993833;28;20026;-78
2023/01/31 09:20:53;;;;;;;15.15;6.57;;;;;;;3.35;100.00;102038.50;5002709;28;20026;-78
2023/01/31 09:23:19;;;;;;;22.50;8.30;;;;;;;3.41;100.00;102042.59;4995470;28;20045;-78
2023/01/31 09:25:51;;;;;;;20.60;8.93;;;;;;;3.40;100.00;102033.25;5001712;28;20037;-78
2023/01/31 09:28:16;;;;;;;20.95;6.70;;;;;;;3.50;100.00;102042.31;4991744;28;20029;-78
2023/01/31 09:30:41;;;;;;;19.85;6.70;;;;;;;3.53;100.00;102031.94;5009029;28;20049;-78
2023/01/31 09:33:07;;;;;;;22.60;8.75;;;;;;;3.48;100.00;102023.56;4998324;28;20057;-79
2023/01/31 09:35:32;;;;;;;20.52;7.22;;;;;;;3.52;100.00;102025.16;5001820;28;20026;-78
2023/01/31 09:37:57;;;;;;;17.10;6.28;;;;;;;3.57;100.00;102028.41;5002138;28;20126;-78
2023/01/31 09:40:27;;;;;;;21.25;9.55;;;;;;;3.58;100.00;102045.47;5008990;28;20037;-78
2023/01/31 09:42:54;;;;;;;22.30;9.18;;;;;;;3.56;100.00;102021.59;4997322;28;20033;-79
2023/01/31 09:45:35;;;;;;;20.30;8.23;;;;;;;3.63;100.00;102038.47;4998647;28;20381;-78
2023/01/31 09:48:02;;;;;;;18.08;6.97;;;;;;;3.66;100.00;102028.09;4994205;28;20022;-79
2023/01/31 09:50:42;;;;;;;19.58;5.72;;;;;;;3.70;100.00;102029.66;4999116;28;20033;-78
2023/01/31 09:53:12;;;;;;;21.30;9.43;;;;;;;3.69;100.00;102017.72;4997408;28;20030;-78
2023/01/31 09:56:05;;;;;;;18.50;6.60;;;;;;;3.73;100.00;102019.31;5005670;28;20029;-79
2023/01/31 09:58:56;;;;;;;19.65;6.95;;;;;;;3.76;100.00;102017.53;5006197;28;20030;-78
2023/01/31 10:01:47;;;;;;;20.02;7.93;;;;;;;3.77;100.00;102016.63;5001483;28;20053;-78
2023/01/31 10:04:34;;;;;;;18.48;5.95;;;;;;;3.85;100.00;102030.03;5005382;28;20072;-78
2023/01/31 10:07:12;;;;;;;18.55;7.05;;;;;;;3.88;100.00;102017.09;4994054;28;20030;-79
2023/01/31 10:10:09;;;;;;;18.38;6.25;;;;;;;3.92;100.00;102023.81;4994952;28;20393;-78
2023/01/31 10:12:44;;;;;;;22.17;6.80;;;;;;;3.90;100.00;102023.88;4971572;28;20046;-79
2023/01/31 10:15:27;;;;;;;17.90;8.27;;;;;;;3.95;100.00;102033.94;4998553;28;20125;-78
2023/01/31 10:18:04;;;;;;;16.70;6.45;;;;;;;3.95;100.00;102026.25;4982505;28;20080;-79
2023/01/31 10:20:39;;;;;;;18.95;8.45;;;;;;;3.94;100.00;102027.16;5006628;28;20026;-79
2023/01/31 10:23:24;;;;;;;19.58;6.30;;;;;;;4.01;100.00;102023.47;4986938;28;20077;-78
2023/01/31 10:25:58;;;;;;;19.98;6.25;;;;;;;4.06;100.00;102021.59;4997789;28;20026;-78
2023/01/31 10:28:30;;;;;;;19.48;8.75;;;;;;;4.06;100.00;102006.19;5003411;28;20069;-78
2023/01/31 10:31:01;;;;;;;19.55;8.20;;;;;;;4.08;100.00;102012.13;4979247;28;20037;-79
2023/01/31 10:33:48;;;;;;;20.48;9.45;;;;;;;4.13;100.00;101997.38;5004148;28;20466;-78
2023/01/31 10:36:23;;;;;;;16.67;6.25;;;;;;;4.15;100.00;102003.28;4995383;28;20500;-78
2023/01/31 10:39:11;;;;;;;21.77;6.32;;;;;;;4.18;100.00;102010.88;4994520;28;20163;-78
2023/01/31 10:42:01;;;;;;;20.67;7.82;;;;;;;4.24;100.00;102010.69;4996876;28;20056;-78
2023/01/31 10:44:49;;;;;;;21.33;8.23;;;;;;;4.29;100.00;102007.09;4995344;28;20030;-78
2023/01/31 10:47:17;;;;;;;18.23;8.35;;;;;;;4.32;100.00;101991.59;5003191;28;20480;-78
2023/01/31 10:49:46;;;;;;;18.23;6.20;;;;;;;4.41;100.00;101991.22;4997257;28;20037;-78
2023/01/31 10:52:44;;;;;;;16.65;8.32;;;;;;;4.53;100.00;101988.22;5000255;28;20338;-79
2023/01/31 10:55:41;;;;;;;16.40;6.27;;;;;;;4.60;100.00;101991.41;4974460;28;20135;-78
2023/01/31 10:58:14;;;;;;;21.65;6.00;;;;;;;4.68;100.00;101990.19;4998280;28;20046;-78
2023/01/31 11:00:39;;;;;;;18.63;9.02;;;;;;;4.74;100.00;101984.81;4994697;28;20611;-79
2023/01/31 11:03:05;;;;;;;20.30;9.57;;;;;;;4.78;100.00;101976.09;4989944;28;20026;-78
2023/01/31 11:05:30;;;;;;;19.45;9.20;;;;;;;4.83;100.00;101977.66;4989811;28;20667;-78
2023/01/31 11:08:05;;;;;;;17.17;6.40;;;;;;;4.82;100.00;101955.41;4989430;28;20496;-78
2023/01/31 11:10:31;;;;;;;14.38;6.97;;;;;;;4.90;100.00;101971.38;4991247;28;20493;-79
2023/01/31 11:13:03;;;;;;;17.40;8.10;;;;;;;4.94;100.00;101975.50;4991744;28;20030;-78
2023/01/31 11:15:41;;;;;;;18.33;9.30;;;;;;;4.95;100.00;101977.19;4987978;28;20478;-80
2023/01/31 11:18:35;;;;;;;20.17;9.23;;;;;;;5.02;100.00;101973.44;4993936;28;20037;-79
2023/01/31 11:21:02;;;;;;;16.63;6.22;;;;;;;5.03;100.00;101963.09;4984294;28;20034;-79
2023/01/31 11:23:30;;;;;;;21.60;6.93;;;;;;;5.07;100.00;101966.41;4993478;28;20056;-78
2023/01/31 11:25:56;;;;;;;15.20;7.17;;;;;;;5.05;100.00;101957.91;4998671;28;20021;-79
2023/01/31 11:28:37;;;;;;;17.05;7.40;;;;;;;5.09;100.00;101966.31;4997760;28;20416;-80
2023/01/31 11:31:05;;;;;;;19.42;8.95;;;;;;;5.06;100.00;101950.13;4999342;28;20154;-80
2023/01/31 11:33:44;;;;;;;18.05;8.50;;;;;;;5.10;100.00;101955.13;4996154;28;20022;-79
2023/01/31 11:36:13;;;;;;;16.73;9.32;;;;;;;5.17;100.00;101965.13;4999117;28;20099;-79
2023/01/31 11:38:39;;;;;;;21.23;9.27;;;;;;;5.16;100.00;101955.75;4998700;28;20029;-79